createdAt,value
2022-09-23T00:00:45.380Z,6.71
2022-09-23T00:01:45.421Z,6.68
2022-09-23T00:02:45.398Z,6.63
2022-09-23T00:03:45.369Z,6.53
2022-09-23T00:04:45.327Z,6.50
2022-09-23T00:05:45.363Z,6.53
2022-09-23T00:06:45.313Z,6.50
2022-09-23T00:07:45.302Z,6.46
2022-09-23T00:08:45.321Z,6.37
2022-09-23T00:09:45.275Z,6.45
2022-09-23T00:10:45.251Z,6.46
2022-09-23T00:11:45.237Z,6.32
2022-09-23T00:12:45.252Z,6.21
2022-09-23T00:13:45.232Z,6.25
2022-09-23T00:14:45.239Z,6.13
2022-09-23T00:15:45.236Z,6.21
2022-09-23T00:16:45.328Z,6.18
2022-09-23T00:17:45.198Z,6.18
2022-09-23T00:18:45.196Z,6.31
2022-09-23T00:19:45.174Z,6.24
2022-09-23T00:20:45.157Z,6.09
2022-09-23T00:21:45.177Z,6.09
2022-09-23T00:22:45.137Z,6.12
2022-09-23T00:23:45.137Z,6.05
2022-09-23T00:24:45.122Z,6.12
2022-09-23T00:25:45.111Z,6.09
2022-09-23T00:26:45.092Z,6.16
2022-09-23T00:27:45.096Z,6.18
2022-09-23T00:28:45.074Z,6.08
2022-09-23T00:29:45.053Z,6.11
2022-09-23T00:30:45.142Z,6.15
2022-09-23T00:31:45.034Z,6.15
2022-09-23T00:32:45.025Z,6.15
2022-09-23T00:33:45.055Z,6.15
2022-09-23T00:34:44.990Z,6.11
2022-09-23T00:35:44.991Z,6.03
2022-09-23T00:36:44.995Z,6.12
2022-09-23T00:37:45.004Z,6.05
2022-09-23T00:38:44.960Z,6.08
2022-09-23T00:39:44.970Z,5.97
2022-09-23T00:40:45.001Z,6.00
2022-09-23T00:41:44.912Z,5.95
2022-09-23T00:42:44.918Z,5.97
2022-09-23T00:43:44.899Z,5.95
2022-09-23T00:44:44.884Z,5.94
2022-09-23T00:45:44.930Z,6.03
2022-09-23T00:46:44.868Z,5.87
2022-09-23T00:47:44.868Z,5.90
2022-09-23T00:48:44.857Z,5.91
2022-09-23T00:49:52.855Z,5.88
2022-09-23T00:50:44.894Z,5.93
2022-09-23T00:51:44.987Z,5.87
2022-09-23T00:52:52.560Z,5.77
2022-09-23T00:53:44.916Z,5.87
2022-09-23T00:54:44.953Z,5.88
2022-09-23T00:55:44.830Z,5.80
2022-09-23T00:56:44.857Z,5.75
2022-09-23T00:57:44.772Z,5.72
2022-09-23T00:58:44.743Z,5.72
2022-09-23T00:59:44.745Z,5.82
2022-09-23T01:00:44.744Z,5.90
2022-09-23T01:01:44.810Z,5.77
2022-09-23T01:02:44.839Z,5.77
2022-09-23T01:03:44.735Z,5.70
2022-09-23T01:04:44.683Z,5.69
2022-09-23T01:05:44.678Z,5.66
2022-09-23T01:06:44.682Z,5.66
2022-09-23T01:07:44.651Z,5.54
2022-09-23T01:08:44.664Z,5.59
2022-09-23T01:09:44.699Z,5.66
2022-09-23T01:10:44.610Z,5.62
2022-09-23T01:11:44.623Z,5.58
2022-09-23T01:12:44.608Z,5.58
2022-09-23T01:13:44.584Z,5.58
2022-09-23T01:14:44.613Z,5.51
2022-09-23T01:15:44.560Z,5.58
2022-09-23T01:16:44.607Z,5.65
2022-09-23T01:17:44.549Z,5.51
2022-09-23T01:18:44.565Z,5.43
2022-09-23T01:19:44.522Z,5.54
2022-09-23T01:20:44.507Z,5.48
2022-09-23T01:21:44.503Z,5.51
2022-09-23T01:22:44.529Z,5.39
2022-09-23T01:23:44.492Z,5.40
2022-09-23T01:24:44.498Z,5.50
2022-09-23T01:25:44.469Z,5.50
2022-09-23T01:26:44.441Z,5.39
2022-09-23T01:27:44.436Z,5.43
2022-09-23T01:28:44.439Z,5.52
2022-09-23T01:29:44.442Z,5.51
2022-09-23T01:30:44.514Z,5.51
2022-09-23T01:31:44.422Z,5.48
2022-09-23T01:32:44.384Z,5.50
2022-09-23T01:33:44.386Z,5.50
2022-09-23T01:34:44.365Z,5.48
2022-09-23T01:35:55.137Z,5.55
2022-09-23T01:36:44.406Z,5.51
2022-09-23T01:37:44.384Z,5.43
2022-09-23T01:38:44.456Z,5.51
2022-09-23T01:39:44.354Z,5.48
2022-09-23T01:40:44.374Z,5.34
2022-09-23T01:41:44.291Z,5.50
2022-09-23T01:42:44.286Z,5.37
2022-09-23T01:43:44.279Z,5.43
2022-09-23T01:44:44.280Z,5.48
2022-09-23T01:45:44.262Z,5.44
2022-09-23T01:46:44.271Z,5.39
2022-09-23T01:47:44.258Z,5.41
2022-09-23T01:48:44.305Z,5.51
2022-09-23T01:49:44.215Z,5.48
2022-09-23T01:50:44.203Z,5.39
2022-09-23T01:51:44.196Z,5.40
2022-09-23T01:52:44.212Z,5.37
2022-09-23T01:53:44.170Z,5.37
2022-09-23T01:54:44.212Z,5.39
2022-09-23T01:55:44.161Z,5.32
2022-09-23T01:56:44.140Z,5.30
2022-09-23T01:57:44.164Z,5.29
2022-09-23T01:58:44.128Z,5.27
2022-09-23T01:59:44.110Z,5.25
2022-09-23T02:00:44.120Z,5.24
2022-09-23T02:01:44.137Z,5.27
2022-09-23T02:02:44.178Z,5.27
2022-09-23T02:03:44.080Z,5.27
2022-09-23T02:04:44.065Z,5.29
2022-09-23T02:05:44.037Z,5.36
2022-09-23T02:06:44.044Z,5.41
2022-09-23T02:07:44.069Z,5.34
2022-09-23T02:08:44.026Z,5.39
2022-09-23T02:09:43.996Z,5.36
2022-09-23T02:10:43.998Z,5.24
2022-09-23T02:11:43.980Z,5.34
2022-09-23T02:12:43.973Z,5.41
2022-09-23T02:13:43.976Z,5.39
2022-09-23T02:14:43.952Z,5.47
2022-09-23T02:15:43.966Z,5.51
2022-09-23T02:16:44.016Z,5.36
2022-09-23T02:17:43.918Z,5.39
2022-09-23T02:18:43.908Z,5.39
2022-09-23T02:19:43.908Z,5.47
2022-09-23T02:20:43.903Z,5.54
2022-09-23T02:21:43.898Z,5.59
2022-09-23T02:22:43.893Z,5.47
2022-09-23T02:23:43.855Z,5.59
2022-09-23T02:24:43.872Z,5.76
2022-09-23T02:25:43.837Z,5.82
2022-09-23T02:26:43.825Z,5.90
2022-09-23T02:27:43.812Z,5.91
2022-09-23T02:28:43.817Z,5.98
2022-09-23T02:29:43.819Z,5.93
2022-09-23T02:30:43.817Z,5.97
2022-09-23T02:31:43.840Z,5.94
2022-09-23T02:32:43.788Z,6.03
2022-09-23T02:33:43.763Z,6.08
2022-09-23T02:34:43.754Z,5.97
2022-09-23T02:35:43.736Z,5.97
2022-09-23T02:36:43.743Z,5.98
2022-09-23T02:37:43.712Z,6.09
2022-09-23T02:38:43.742Z,5.98
2022-09-23T02:39:43.707Z,6.00
2022-09-23T02:40:43.779Z,5.98
2022-09-23T02:41:43.674Z,6.03
2022-09-23T02:42:43.658Z,5.95
2022-09-23T02:43:43.656Z,6.00
2022-09-23T02:44:43.668Z,5.94
2022-09-23T02:45:43.722Z,5.88
2022-09-23T02:46:43.657Z,5.91
2022-09-23T02:47:43.611Z,5.90
2022-09-23T02:48:43.756Z,5.91
2022-09-23T02:49:43.597Z,5.88
2022-09-23T02:50:43.603Z,5.87
2022-09-23T02:51:43.564Z,5.84
2022-09-23T02:52:43.567Z,5.84
2022-09-23T02:53:43.559Z,5.94
2022-09-23T02:54:43.530Z,5.93
2022-09-23T02:55:43.524Z,5.90
2022-09-23T02:56:43.528Z,5.85
2022-09-23T02:57:52.628Z,5.94
2022-09-23T02:58:51.176Z,5.88
2022-09-23T02:59:51.174Z,5.80
2022-09-23T03:00:43.590Z,5.84
2022-09-23T03:01:43.521Z,5.84
2022-09-23T03:02:43.517Z,5.84
2022-09-23T03:03:43.572Z,5.75
2022-09-23T03:04:43.458Z,5.79
2022-09-23T03:05:43.419Z,5.75
2022-09-23T03:06:43.412Z,5.67
2022-09-23T03:07:43.407Z,5.70
2022-09-23T03:08:43.407Z,5.66
2022-09-23T03:09:43.374Z,5.66
2022-09-23T03:10:43.390Z,5.65
2022-09-23T03:11:43.366Z,5.65
2022-09-23T03:12:43.366Z,5.65
2022-09-23T03:13:43.344Z,5.52
2022-09-23T03:14:43.329Z,5.55
2022-09-23T03:15:43.336Z,5.66
2022-09-23T03:16:43.378Z,5.61
2022-09-23T03:17:43.297Z,5.75
2022-09-23T03:18:43.295Z,5.76
2022-09-23T03:19:43.281Z,5.75
2022-09-23T03:20:43.288Z,5.75
2022-09-23T03:21:43.268Z,5.67
2022-09-23T03:22:43.251Z,5.54
2022-09-23T03:23:43.234Z,5.52
2022-09-23T03:24:43.241Z,5.52
2022-09-23T03:25:43.226Z,5.52
2022-09-23T03:26:43.214Z,5.55
2022-09-23T03:27:43.219Z,5.51
2022-09-23T03:28:43.183Z,5.54
2022-09-23T03:29:43.187Z,5.44
2022-09-23T03:30:43.167Z,5.51
2022-09-23T03:31:43.203Z,5.57
2022-09-23T03:32:43.151Z,5.59
2022-09-23T03:33:43.143Z,5.58
2022-09-23T03:34:43.130Z,5.55
2022-09-23T03:35:43.117Z,5.55
2022-09-23T03:36:43.133Z,5.69
2022-09-23T03:37:43.088Z,5.69
2022-09-23T03:38:43.097Z,5.70
2022-09-23T03:39:43.088Z,5.70
2022-09-23T03:40:43.141Z,5.67
2022-09-23T03:41:43.052Z,5.62
2022-09-23T03:42:43.053Z,5.62
2022-09-23T03:43:43.039Z,5.62
2022-09-23T03:44:43.023Z,5.73
2022-09-23T03:45:43.103Z,5.61
2022-09-23T03:46:43.012Z,5.57
2022-09-23T03:47:43.003Z,5.66
2022-09-23T03:48:42.984Z,5.61
2022-09-23T03:49:42.974Z,5.66
2022-09-23T03:50:42.961Z,5.62
2022-09-23T03:51:44.799Z,5.67
2022-09-23T03:52:42.972Z,5.70
2022-09-23T03:53:42.927Z,5.61
2022-09-23T03:54:42.932Z,5.67
2022-09-23T03:55:42.920Z,5.55
2022-09-23T03:56:42.899Z,5.57
2022-09-23T03:57:42.926Z,5.54
2022-09-23T03:58:42.878Z,5.58
2022-09-23T03:59:42.873Z,5.57
2022-09-23T04:00:42.897Z,5.57
2022-09-23T04:01:42.879Z,5.57
2022-09-23T04:02:42.839Z,5.52
2022-09-23T04:03:42.843Z,5.51
2022-09-23T04:04:42.817Z,5.58
2022-09-23T04:05:42.806Z,5.62
2022-09-23T04:06:42.795Z,5.52
2022-09-23T04:07:42.791Z,5.41
2022-09-23T04:08:42.801Z,5.50
2022-09-23T04:09:42.807Z,5.52
2022-09-23T04:10:42.758Z,5.55
2022-09-23T04:11:42.742Z,5.51
2022-09-23T04:12:42.725Z,5.47
2022-09-23T04:13:42.736Z,5.48
2022-09-23T04:14:42.716Z,5.50
2022-09-23T04:15:42.759Z,5.47
2022-09-23T04:16:42.722Z,5.44
2022-09-23T04:17:42.683Z,5.41
2022-09-23T04:18:42.687Z,5.34
2022-09-23T04:19:42.678Z,5.47
2022-09-23T04:20:42.649Z,5.27
2022-09-23T04:21:42.644Z,5.33
2022-09-23T04:22:42.653Z,5.24
2022-09-23T04:23:42.627Z,5.25
2022-09-23T04:24:42.622Z,5.24
2022-09-23T04:25:42.598Z,5.24
2022-09-23T04:26:42.595Z,5.12
2022-09-23T04:27:42.585Z,5.06
2022-09-23T04:28:42.583Z,5.07
2022-09-23T04:29:42.552Z,5.04
2022-09-23T04:30:42.552Z,5.06
2022-09-23T04:31:42.540Z,5.01
2022-09-23T04:32:42.556Z,4.94
2022-09-23T04:33:42.529Z,4.89
2022-09-23T04:34:42.506Z,4.88
2022-09-23T04:35:42.490Z,4.88
2022-09-23T04:36:42.494Z,4.86
2022-09-23T04:37:42.494Z,4.88
2022-09-23T04:38:42.466Z,4.78
2022-09-23T04:39:42.466Z,4.75
2022-09-23T04:40:42.524Z,4.79
2022-09-23T04:41:42.428Z,4.77
2022-09-23T04:42:42.421Z,4.78
2022-09-23T04:43:42.416Z,4.85
2022-09-23T04:44:42.403Z,4.86
2022-09-23T04:45:42.405Z,4.83
2022-09-23T04:46:42.461Z,4.86
2022-09-23T04:47:42.357Z,4.88
2022-09-23T04:48:42.353Z,4.93
2022-09-23T04:49:42.361Z,4.88
2022-09-23T04:50:42.345Z,4.89
2022-09-23T04:51:42.328Z,4.88
2022-09-23T04:52:42.316Z,4.83
2022-09-23T04:53:42.311Z,4.85
2022-09-23T04:54:42.296Z,4.86
2022-09-23T04:55:42.277Z,4.86
2022-09-23T04:56:42.281Z,4.86
2022-09-23T04:57:42.265Z,4.89
2022-09-23T04:58:42.261Z,4.91
2022-09-23T04:59:42.231Z,4.94
2022-09-23T05:00:42.299Z,4.96
2022-09-23T05:01:42.364Z,4.98
2022-09-23T05:02:42.223Z,5.03
2022-09-23T05:03:42.210Z,5.00
2022-09-23T05:04:42.179Z,5.14
2022-09-23T05:05:42.194Z,5.09
2022-09-23T05:06:42.159Z,5.19
2022-09-23T05:07:42.148Z,5.21
2022-09-23T05:08:42.141Z,5.12
2022-09-23T05:09:42.144Z,5.14
2022-09-23T05:10:42.121Z,5.16
2022-09-23T05:11:42.117Z,5.22
2022-09-23T05:12:42.122Z,5.09
2022-09-23T05:13:42.091Z,5.12
2022-09-23T05:14:42.089Z,5.04
2022-09-23T05:15:42.075Z,5.07
2022-09-23T05:16:42.084Z,5.09
2022-09-23T05:17:42.050Z,5.06
2022-09-23T05:18:42.040Z,5.11
2022-09-23T05:19:42.038Z,5.21
2022-09-23T05:20:42.046Z,5.21
2022-09-23T05:21:42.008Z,5.16
2022-09-23T05:22:42.030Z,5.19
2022-09-23T05:23:41.981Z,5.14
2022-09-23T05:24:41.975Z,5.14
2022-09-23T05:25:41.969Z,5.14
2022-09-23T05:26:41.969Z,5.14
2022-09-23T05:27:41.947Z,5.22
2022-09-23T05:28:41.962Z,5.30
2022-09-23T05:29:41.921Z,5.21
2022-09-23T05:30:41.916Z,5.27
2022-09-23T05:31:41.942Z,5.36
2022-09-23T05:32:41.911Z,5.36
2022-09-23T05:33:41.880Z,5.41
2022-09-23T05:34:41.887Z,5.50
2022-09-23T05:35:41.864Z,5.51
2022-09-23T05:36:41.847Z,5.55
2022-09-23T05:37:41.839Z,5.72
2022-09-23T05:38:41.840Z,5.72
2022-09-23T05:39:41.843Z,5.69
2022-09-23T05:40:41.979Z,5.76
2022-09-23T05:41:41.808Z,5.88
2022-09-23T05:42:41.796Z,5.93
2022-09-23T05:43:41.787Z,5.97
2022-09-23T05:44:41.782Z,6.03
2022-09-23T05:45:41.763Z,6.02
2022-09-23T05:46:41.827Z,6.00
2022-09-23T05:47:41.744Z,6.18
2022-09-23T05:48:41.750Z,6.16
2022-09-23T05:49:58.553Z,6.28
2022-09-23T05:50:42.714Z,6.27
2022-09-23T05:51:41.706Z,6.32
2022-09-23T05:52:41.727Z,6.40
2022-09-23T05:53:41.686Z,6.45
2022-09-23T05:54:41.677Z,6.45
2022-09-23T05:55:41.666Z,6.49
2022-09-23T05:56:41.644Z,6.56
2022-09-23T05:57:41.638Z,6.71
2022-09-23T05:58:41.635Z,6.79
2022-09-23T05:59:41.637Z,6.82
2022-09-23T06:00:41.621Z,6.75
2022-09-23T06:01:41.682Z,6.92
2022-09-23T06:02:41.610Z,7.00
2022-09-23T06:03:41.581Z,7.11
2022-09-23T06:04:41.560Z,7.18
2022-09-23T06:05:41.589Z,7.18
2022-09-23T06:06:41.564Z,7.19
2022-09-23T06:07:41.534Z,7.28
2022-09-23T06:08:41.518Z,7.29
2022-09-23T06:09:41.503Z,7.44
2022-09-23T06:10:41.493Z,7.46
2022-09-23T06:11:41.502Z,7.44
2022-09-23T06:12:41.469Z,7.43
2022-09-23T06:13:41.464Z,7.47
2022-09-23T06:14:41.453Z,7.52
2022-09-23T06:15:41.514Z,7.52
2022-09-23T06:16:41.446Z,7.58
2022-09-23T06:17:41.442Z,7.73
2022-09-23T06:18:41.407Z,7.78
2022-09-23T06:19:41.401Z,7.81
2022-09-23T06:20:41.399Z,7.84
2022-09-23T06:21:41.382Z,7.88
2022-09-23T06:22:41.407Z,7.98
2022-09-23T06:23:41.990Z,7.96
2022-09-23T06:24:41.352Z,7.87
2022-09-23T06:25:41.343Z,8.05
2022-09-23T06:26:41.333Z,8.06
2022-09-23T06:27:41.319Z,8.06
2022-09-23T06:28:41.327Z,8.02
2022-09-23T06:29:41.328Z,8.13
2022-09-23T06:30:41.285Z,8.14
2022-09-23T06:31:41.380Z,8.20
2022-09-23T06:32:41.285Z,8.17
2022-09-23T06:33:41.268Z,8.24
2022-09-23T06:34:51.101Z,8.35
2022-09-23T06:35:48.247Z,8.49
2022-09-23T06:36:44.892Z,8.46
2022-09-23T06:37:41.219Z,8.47
2022-09-23T06:38:41.201Z,8.52
2022-09-23T06:39:41.201Z,8.56
2022-09-23T06:40:41.229Z,8.50
2022-09-23T06:41:41.195Z,8.63
2022-09-23T06:42:41.157Z,8.56
2022-09-23T06:43:41.145Z,8.63
2022-09-23T06:44:41.144Z,8.74
2022-09-23T06:45:41.131Z,8.77
2022-09-23T06:46:41.220Z,8.80
2022-09-23T06:47:41.111Z,8.89
2022-09-23T06:48:45.915Z,8.95
2022-09-23T06:49:42.111Z,8.95
2022-09-23T06:50:41.079Z,9.08
2022-09-23T06:51:41.070Z,9.08
2022-09-23T06:52:41.049Z,9.18
2022-09-23T06:53:41.043Z,9.24
2022-09-23T06:54:41.039Z,9.18
2022-09-23T06:55:41.032Z,9.33
2022-09-23T06:56:41.015Z,9.24
2022-09-23T06:57:40.995Z,9.26
2022-09-23T06:58:41.008Z,9.42
2022-09-23T06:59:40.985Z,9.41
2022-09-23T07:00:40.965Z,9.37
2022-09-23T07:01:41.084Z,9.54
2022-09-23T07:02:41.062Z,9.45
2022-09-23T07:03:40.939Z,9.52
2022-09-23T07:04:40.977Z,9.51
2022-09-23T07:05:40.933Z,9.60
2022-09-23T07:06:40.919Z,9.55
2022-09-23T07:07:40.897Z,9.62
2022-09-23T07:08:40.882Z,9.78
2022-09-23T07:09:40.881Z,9.77
2022-09-23T07:10:40.871Z,9.93
2022-09-23T07:11:40.872Z,9.91
2022-09-23T07:12:40.842Z,9.99
2022-09-23T07:13:40.835Z,10.06
2022-09-23T07:14:40.845Z,10.09
2022-09-23T07:15:40.853Z,10.14
2022-09-23T07:16:40.801Z,10.16
2022-09-23T07:17:40.799Z,10.10
2022-09-23T07:18:40.784Z,10.18
2022-09-23T07:19:40.774Z,10.27
2022-09-23T07:20:40.790Z,10.28
2022-09-23T07:21:40.750Z,10.31
2022-09-23T07:22:40.735Z,10.31
2022-09-23T07:23:40.742Z,10.38
2022-09-23T07:24:40.709Z,10.46
2022-09-23T07:25:40.701Z,10.41
2022-09-23T07:26:45.488Z,10.42
2022-09-23T07:27:41.685Z,10.42
2022-09-23T07:28:40.683Z,10.39
2022-09-23T07:29:47.902Z,10.43
2022-09-23T07:30:52.342Z,10.48
2022-09-23T07:31:41.710Z,10.38
2022-09-23T07:32:48.188Z,10.42
2022-09-23T07:33:41.663Z,10.48
2022-09-23T07:34:40.611Z,10.64
2022-09-23T07:35:40.596Z,10.58
2022-09-23T07:36:40.927Z,10.64
2022-09-23T07:37:40.585Z,10.78
2022-09-23T07:38:45.249Z,10.83
2022-09-23T07:39:41.556Z,10.93
2022-09-23T07:40:40.609Z,10.83
2022-09-23T07:41:40.538Z,10.95
2022-09-23T07:42:40.533Z,10.93
2022-09-23T07:43:40.524Z,10.97
2022-09-23T07:44:40.512Z,11.03
2022-09-23T07:45:40.501Z,10.90
2022-09-23T07:46:40.624Z,11.13
2022-09-23T07:47:40.470Z,11.12
2022-09-23T07:48:40.516Z,11.27
2022-09-23T07:49:40.462Z,11.23
2022-09-23T07:50:40.449Z,11.25
2022-09-23T07:51:40.435Z,11.37
2022-09-23T07:52:40.438Z,11.36
2022-09-23T07:53:40.416Z,11.40
2022-09-23T07:54:40.418Z,11.45
2022-09-23T07:55:40.387Z,11.56
2022-09-23T07:56:40.377Z,11.62
2022-09-23T07:57:40.368Z,11.59
2022-09-23T07:58:40.356Z,11.71
2022-09-23T07:59:40.355Z,11.87
2022-09-23T08:00:40.351Z,11.89
2022-09-23T08:01:40.354Z,11.84
2022-09-23T08:02:40.359Z,11.89
2022-09-23T08:03:40.307Z,11.97
2022-09-23T08:04:40.317Z,11.99
2022-09-23T08:05:40.288Z,12.03
2022-09-23T08:06:40.300Z,11.99
2022-09-23T08:07:40.261Z,12.14
2022-09-23T08:08:40.264Z,12.25
2022-09-23T08:09:40.232Z,12.35
2022-09-23T08:10:40.250Z,12.43
2022-09-23T08:11:40.217Z,12.44
2022-09-23T08:12:40.214Z,12.50
2022-09-23T08:13:40.198Z,12.62
2022-09-23T08:14:40.194Z,12.63
2022-09-23T08:15:40.233Z,12.62
2022-09-23T08:16:40.166Z,12.66
2022-09-23T08:17:40.156Z,12.69
2022-09-23T08:18:40.155Z,12.76
2022-09-23T08:19:40.140Z,12.73
2022-09-23T08:20:43.657Z,12.80
2022-09-23T08:21:41.122Z,12.81
2022-09-23T08:22:40.097Z,12.77
2022-09-23T08:23:40.097Z,12.95
2022-09-23T08:24:40.102Z,12.96
2022-09-23T08:25:40.225Z,12.96
2022-09-23T08:26:40.068Z,12.96
2022-09-23T08:27:40.052Z,13.04
2022-09-23T08:28:40.042Z,12.99
2022-09-23T08:29:40.035Z,13.04
2022-09-23T08:30:40.097Z,13.08
2022-09-23T08:31:40.043Z,13.09
2022-09-23T08:32:40.006Z,13.11
2022-09-23T08:33:39.986Z,13.14
2022-09-23T08:34:39.978Z,13.23
2022-09-23T08:35:39.965Z,13.42
2022-09-23T08:36:39.976Z,13.42
2022-09-23T08:37:39.958Z,13.40
2022-09-23T08:38:39.936Z,13.57
2022-09-23T08:39:39.934Z,13.63
2022-09-23T08:40:40.094Z,13.64
2022-09-23T08:41:39.899Z,13.65
2022-09-23T08:42:39.935Z,13.78
2022-09-23T08:43:39.892Z,13.86
2022-09-23T08:44:39.870Z,13.93
2022-09-23T08:45:39.864Z,14.05
2022-09-23T08:46:39.851Z,14.00
2022-09-23T08:47:39.848Z,13.96
2022-09-23T08:48:39.849Z,13.88
2022-09-23T08:49:39.822Z,13.96
2022-09-23T08:50:39.805Z,14.00
2022-09-23T08:51:39.811Z,14.11
2022-09-23T08:52:39.791Z,14.16
2022-09-23T08:53:39.790Z,14.18
2022-09-23T08:54:39.788Z,14.23
2022-09-23T08:55:39.760Z,14.23
2022-09-23T08:56:39.767Z,14.34
2022-09-23T08:57:39.733Z,14.37
2022-09-23T08:58:39.744Z,14.44
2022-09-23T08:59:39.720Z,14.41
2022-09-23T09:00:39.730Z,14.53
2022-09-23T09:01:39.734Z,14.37
2022-09-23T09:02:39.770Z,14.49
2022-09-23T09:03:39.672Z,14.41
2022-09-23T09:04:39.656Z,14.64
2022-09-23T09:05:39.664Z,14.58
2022-09-23T09:06:52.464Z,14.70
2022-09-23T09:07:40.636Z,14.78
2022-09-23T09:08:39.633Z,14.79
2022-09-23T09:09:39.599Z,14.67
2022-09-23T09:10:39.586Z,14.70
2022-09-23T09:11:39.588Z,14.77
2022-09-23T09:12:39.590Z,14.78
2022-09-23T09:13:39.563Z,14.74
2022-09-23T09:14:39.556Z,14.86
2022-09-23T09:15:39.547Z,14.87
2022-09-23T09:16:58.922Z,15.03
2022-09-23T09:17:40.508Z,15.03
2022-09-23T09:18:39.522Z,14.95
2022-09-23T09:19:39.501Z,15.10
2022-09-23T09:20:39.488Z,15.12
2022-09-23T09:21:39.476Z,15.11
2022-09-23T09:22:39.469Z,15.26
2022-09-23T09:23:39.452Z,15.26
2022-09-23T09:24:48.508Z,15.30
2022-09-23T09:25:47.040Z,15.32
2022-09-23T09:26:48.074Z,15.30
2022-09-23T09:27:47.045Z,15.26
2022-09-23T09:28:39.411Z,15.30
2022-09-23T09:29:39.630Z,15.33
2022-09-23T09:30:39.490Z,15.33
2022-09-23T09:31:39.467Z,15.36
2022-09-23T09:32:39.368Z,15.41
2022-09-23T09:33:39.347Z,15.40
2022-09-23T09:34:39.340Z,15.36
2022-09-23T09:35:39.347Z,15.45
2022-09-23T09:36:39.317Z,15.32
2022-09-23T09:37:39.313Z,15.43
2022-09-23T09:38:39.286Z,15.48
2022-09-23T09:39:39.286Z,15.56
2022-09-23T09:40:39.328Z,15.60
2022-09-23T09:41:39.267Z,15.62
2022-09-23T09:42:39.269Z,15.66
2022-09-23T09:43:43.945Z,15.70
2022-09-23T09:44:40.226Z,15.73
2022-09-23T09:45:39.219Z,15.73
2022-09-23T09:46:39.267Z,15.59
2022-09-23T09:47:39.203Z,15.63
2022-09-23T09:48:39.192Z,15.66
2022-09-23T09:49:40.713Z,15.76
2022-09-23T09:50:39.172Z,15.84
2022-09-23T09:51:39.151Z,15.87
2022-09-23T09:52:41.940Z,15.88
2022-09-23T09:53:39.077Z,15.93
2022-09-23T09:54:39.078Z,15.88
2022-09-23T09:55:39.086Z,15.87
2022-09-23T09:56:39.087Z,15.88
2022-09-23T09:57:39.035Z,15.96
2022-09-23T09:58:39.036Z,16.03
2022-09-23T09:59:39.030Z,16.16
2022-09-23T10:00:39.017Z,16.10
2022-09-23T10:01:39.049Z,16.13
2022-09-23T10:02:38.984Z,16.10
2022-09-23T10:03:38.966Z,16.18
2022-09-23T10:04:38.987Z,16.32
2022-09-23T10:05:38.948Z,16.34
2022-09-23T10:06:38.949Z,16.33
2022-09-23T10:07:38.928Z,16.39
2022-09-23T10:08:38.913Z,16.36
2022-09-23T10:09:38.901Z,16.51
2022-09-23T10:10:38.915Z,16.59
2022-09-23T10:11:38.915Z,16.70
2022-09-23T10:12:38.880Z,16.69
2022-09-23T10:13:38.862Z,16.77
2022-09-23T10:14:38.852Z,16.88
2022-09-23T10:15:42.462Z,16.90
2022-09-23T10:16:39.899Z,16.94
2022-09-23T10:17:38.814Z,16.95
2022-09-23T10:18:38.823Z,17.01
2022-09-23T10:19:38.796Z,16.92
2022-09-23T10:20:38.779Z,16.95
2022-09-23T10:21:38.787Z,16.94
2022-09-23T10:22:38.761Z,17.01
2022-09-23T10:23:38.755Z,17.02
2022-09-23T10:24:38.759Z,17.12
2022-09-23T10:25:38.738Z,17.09
2022-09-23T10:26:38.721Z,17.04
2022-09-23T10:27:38.720Z,17.14
2022-09-23T10:28:38.715Z,17.24
2022-09-23T10:29:38.695Z,17.31
2022-09-23T10:30:38.781Z,17.32
2022-09-23T10:31:38.714Z,17.39
2022-09-23T10:32:38.672Z,17.46
2022-09-23T10:33:38.648Z,17.30
2022-09-23T10:34:38.649Z,17.27
2022-09-23T10:35:38.625Z,17.45
2022-09-23T10:36:43.762Z,17.35
2022-09-23T10:37:39.606Z,17.07
2022-09-23T10:38:38.601Z,16.97
2022-09-23T10:39:38.601Z,16.95
2022-09-23T10:40:38.799Z,16.91
2022-09-23T10:41:38.566Z,16.97
2022-09-23T10:42:38.558Z,17.07
2022-09-23T10:43:38.558Z,17.06
2022-09-23T10:44:38.556Z,16.92
2022-09-23T10:45:41.123Z,17.04
2022-09-23T10:46:38.687Z,17.09
2022-09-23T10:47:38.546Z,17.02
2022-09-23T10:48:38.506Z,17.07
2022-09-23T10:49:38.483Z,17.09
2022-09-23T10:50:38.510Z,17.25
2022-09-23T10:51:38.484Z,17.43
2022-09-23T10:52:38.457Z,17.43
2022-09-23T10:53:38.451Z,17.46
2022-09-23T10:54:38.436Z,17.57
2022-09-23T10:55:38.458Z,17.46
2022-09-23T10:56:38.411Z,17.52
2022-09-23T10:57:38.416Z,17.54
2022-09-23T10:58:38.393Z,17.54
2022-09-23T10:59:38.382Z,17.47
2022-09-23T11:00:38.367Z,17.56
2022-09-23T11:01:38.542Z,17.56
2022-09-23T11:02:38.350Z,17.62
2022-09-23T11:03:38.368Z,17.66
2022-09-23T11:04:38.362Z,17.75
2022-09-23T11:05:38.325Z,17.57
2022-09-23T11:06:38.320Z,17.49
2022-09-23T11:08:39.291Z,17.41
2022-09-23T11:09:38.277Z,17.41
2022-09-23T11:10:46.621Z,17.34
2022-09-23T11:11:39.258Z,17.34
2022-09-23T11:12:38.252Z,17.34
2022-09-23T11:13:38.254Z,17.30
2022-09-23T11:14:38.224Z,17.34
2022-09-23T11:15:38.213Z,17.37
2022-09-23T11:16:38.294Z,17.32
2022-09-23T11:17:38.214Z,17.12
2022-09-23T11:18:38.203Z,17.07
2022-09-23T11:19:42.166Z,17.04
2022-09-23T11:20:39.165Z,17.24
2022-09-23T11:21:38.161Z,17.10
2022-09-23T11:22:38.163Z,17.10
2022-09-23T11:23:38.156Z,17.09
2022-09-23T11:24:38.136Z,17.17
2022-09-23T11:25:38.121Z,17.14
2022-09-23T11:26:38.119Z,17.10
2022-09-23T11:27:38.107Z,17.06
2022-09-23T11:28:38.096Z,17.22
2022-09-23T11:29:38.076Z,17.34
2022-09-23T11:30:38.159Z,17.39
2022-09-23T11:31:38.054Z,17.37
2022-09-23T11:32:38.048Z,17.43
2022-09-23T11:33:38.048Z,17.47
2022-09-23T11:34:38.022Z,17.52
2022-09-23T11:35:38.047Z,17.57
2022-09-23T11:36:38.019Z,17.66
2022-09-23T11:37:37.989Z,17.62
2022-09-23T11:38:37.977Z,17.65
2022-09-23T11:39:37.969Z,17.71
2022-09-23T11:40:41.070Z,17.69
2022-09-23T11:41:38.959Z,17.68
2022-09-23T11:42:37.948Z,17.63
2022-09-23T11:43:37.928Z,17.54
2022-09-23T11:44:37.926Z,17.52
2022-09-23T11:45:37.965Z,17.65
2022-09-23T11:46:37.905Z,17.54
2022-09-23T11:47:39.920Z,17.62
2022-09-23T11:48:37.898Z,17.59
2022-09-23T11:49:37.868Z,17.50
2022-09-23T11:50:37.895Z,17.52
2022-09-23T11:51:37.872Z,17.65
2022-09-23T11:52:37.836Z,17.71
2022-09-23T11:53:37.819Z,17.71
2022-09-23T11:54:37.824Z,17.65
2022-09-23T11:55:39.536Z,17.86
2022-09-23T11:56:40.230Z,17.84
2022-09-23T11:57:47.096Z,17.86
2022-09-23T11:59:40.690Z,17.81
2022-09-23T12:00:37.777Z,17.79
2022-09-23T12:01:39.025Z,17.75
2022-09-23T12:02:37.869Z,17.76
2022-09-23T12:03:43.955Z,17.79
2022-09-23T12:04:48.857Z,17.56
2022-09-23T12:05:38.820Z,17.57
2022-09-23T12:06:37.706Z,17.54
2022-09-23T12:07:37.692Z,17.45
2022-09-23T12:08:37.667Z,17.45
2022-09-23T12:09:57.348Z,17.41
2022-09-23T12:10:38.646Z,17.43
2022-09-23T12:11:37.627Z,17.37
2022-09-23T12:12:37.648Z,17.32
2022-09-23T12:13:37.616Z,17.31
2022-09-23T12:14:37.597Z,17.31
2022-09-23T12:15:37.585Z,17.34
2022-09-23T12:16:37.691Z,17.27
2022-09-23T12:17:37.586Z,17.43
2022-09-23T12:18:37.570Z,17.46
2022-09-23T12:19:37.550Z,17.43
2022-09-23T12:20:37.538Z,17.50
2022-09-23T12:21:51.657Z,17.69
2022-09-23T12:22:38.512Z,17.81
2022-09-23T12:23:37.538Z,17.83
2022-09-23T12:24:37.504Z,17.83
2022-09-23T12:25:37.479Z,17.86
2022-09-23T12:26:37.470Z,17.91
2022-09-23T12:27:37.467Z,17.91
2022-09-23T12:28:37.463Z,18.03
2022-09-23T12:29:37.456Z,18.01
2022-09-23T12:30:37.473Z,18.05
2022-09-23T12:31:40.393Z,18.02
2022-09-23T12:32:37.415Z,18.06
2022-09-23T12:33:37.403Z,17.96
2022-09-23T12:34:37.405Z,17.79
2022-09-23T12:35:37.375Z,17.83
2022-09-23T12:36:37.379Z,18.05
2022-09-23T12:37:37.358Z,18.21
2022-09-23T12:38:37.344Z,18.34
2022-09-23T12:39:37.412Z,18.49
2022-09-23T12:40:37.419Z,18.41
2022-09-23T12:41:37.323Z,18.49
2022-09-23T12:42:37.310Z,18.38
2022-09-23T12:43:37.294Z,18.33
2022-09-23T12:44:37.290Z,18.31
2022-09-23T12:45:37.355Z,18.26
2022-09-23T12:46:37.267Z,18.27
2022-09-23T12:47:37.251Z,18.38
2022-09-23T12:48:37.244Z,18.26
2022-09-23T12:49:37.237Z,18.15
2022-09-23T12:50:37.231Z,18.12
2022-09-23T12:51:37.208Z,18.15
2022-09-23T12:52:37.205Z,18.02
2022-09-23T12:53:37.196Z,17.87
2022-09-23T12:54:37.183Z,17.94
2022-09-23T12:55:37.195Z,17.96
2022-09-23T12:56:37.172Z,18.09
2022-09-23T12:57:37.146Z,18.03
2022-09-23T12:58:37.134Z,18.12
2022-09-23T12:59:37.121Z,18.20
2022-09-23T13:00:37.121Z,18.13
2022-09-23T13:01:37.311Z,18.33
2022-09-23T13:02:37.150Z,18.43
2022-09-23T13:03:37.091Z,18.49
2022-09-23T13:04:37.072Z,18.61
2022-09-23T13:05:37.068Z,18.67
2022-09-23T13:06:37.050Z,18.67
2022-09-23T13:07:37.050Z,18.57
2022-09-23T13:08:37.039Z,18.78